sensor_id;sensor_type;location;lat;lon;timestamp;P1;durP1;ratioP1;P2;durP2;ratioP2
18265;SDS011;9259;48.194;16.322;2023-02-17T00:01:11;23.87;;;9.53;;
18265;SDS011;9259;48.194;16.322;2023-02-17T00:03:40;21.10;;;8.80;;
18265;SDS011;9259;48.194;16.322;2023-02-17T00:06:13;23.57;;;9.60;;
18265;SDS011;9259;48.194;16.322;2023-02-17T00:08:42;21.77;;;10.00;;
18265;SDS011;9259;48.194;16.322;2023-02-17T00:11:11;27.43;;;10.40;;
18265;SDS011;9259;48.194;16.322;2023-02-17T00:13:39;33.40;;;11.97;;
18265;SDS011;9259;48.194;16.322;2023-02-17T00:16:08;29.40;;;11.70;;
18265;SDS011;9259;48.194;16.322;2023-02-17T00:18:39;31.20;;;13.27;;
18265;SDS011;9259;48.194;16.322;2023-02-17T00:21:11;25.53;;;11.00;;
18265;SDS011;9259;48.194;16.322;2023-02-17T00:23:40;29.47;;;12.07;;
18265;SDS011;9259;48.194;16.322;2023-02-17T00:26:08;33.40;;;12.80;;
18265;SDS011;9259;48.194;16.322;2023-02-17T00:28:36;26.33;;;11.67;;
18265;SDS011;9259;48.194;16.322;2023-02-17T00:31:05;29.10;;;12.00;;
18265;SDS011;9259;48.194;16.322;2023-02-17T00:33:35;26.90;;;11.33;;
18265;SDS011;9259;48.194;16.322;2023-02-17T00:36:04;30.73;;;12.13;;
18265;SDS011;9259;48.194;16.322;2023-02-17T00:38:33;31.53;;;13.33;;
18265;SDS011;9259;48.194;16.322;2023-02-17T00:41:01;29.37;;;11.30;;
18265;SDS011;9259;48.194;16.322;2023-02-17T00:43:29;27.50;;;10.80;;
18265;SDS011;9259;48.194;16.322;2023-02-17T00:45:58;26.90;;;11.70;;
18265;SDS011;9259;48.194;16.322;2023-02-17T00:48:28;30.07;;;11.70;;
18265;SDS011;9259;48.194;16.322;2023-02-17T00:50:58;28.60;;;11.77;;
18265;SDS011;9259;48.194;16.322;2023-02-17T00:53:26;26.33;;;10.87;;
18265;SDS011;9259;48.194;16.322;2023-02-17T00:55:54;26.47;;;11.30;;
18265;SDS011;9259;48.194;16.322;2023-02-17T00:58:22;27.17;;;11.10;;
18265;SDS011;9259;48.194;16.322;2023-02-17T01:00:50;30.73;;;11.73;;
18265;SDS011;9259;48.194;16.322;2023-02-17T01:03:18;24.97;;;11.00;;
18265;SDS011;9259;48.194;16.322;2023-02-17T01:05:47;25.67;;;11.00;;
18265;SDS011;9259;48.194;16.322;2023-02-17T01:08:17;27.50;;;10.27;;
18265;SDS011;9259;48.194;16.322;2023-02-17T01:10:46;25.20;;;9.73;;
18265;SDS011;9259;48.194;16.322;2023-02-17T01:13:15;25.30;;;9.67;;
18265;SDS011;9259;48.194;16.322;2023-02-17T01:15:45;23.07;;;9.40;;
18265;SDS011;9259;48.194;16.322;2023-02-17T01:18:16;23.27;;;9.77;;
18265;SDS011;9259;48.194;16.322;2023-02-17T01:20:46;23.80;;;9.10;;
18265;SDS011;9259;48.194;16.322;2023-02-17T01:23:15;22.33;;;8.83;;
18265;SDS011;9259;48.194;16.322;2023-02-17T01:25:45;24.97;;;10.23;;
18265;SDS011;9259;48.194;16.322;2023-02-17T01:28:16;25.13;;;10.67;;
18265;SDS011;9259;48.194;16.322;2023-02-17T01:30:46;27.03;;;9.90;;
18265;SDS011;9259;48.194;16.322;2023-02-17T01:33:14;24.07;;;9.60;;
18265;SDS011;9259;48.194;16.322;2023-02-17T01:35:42;26.00;;;10.57;;
18265;SDS011;9259;48.194;16.322;2023-02-17T01:38:10;25.53;;;9.33;;
18265;SDS011;9259;48.194;16.322;2023-02-17T01:40:45;28.17;;;9.73;;
18265;SDS011;9259;48.194;16.322;2023-02-17T01:43:14;24.20;;;9.97;;
18265;SDS011;9259;48.194;16.322;2023-02-17T01:45:48;26.83;;;9.87;;
18265;SDS011;9259;48.194;16.322;2023-02-17T01:48:19;19.33;;;8.57;;
18265;SDS011;9259;48.194;16.322;2023-02-17T01:50:50;22.40;;;9.53;;
18265;SDS011;9259;48.194;16.322;2023-02-17T01:53:23;24.43;;;10.00;;
18265;SDS011;9259;48.194;16.322;2023-02-17T01:55:57;25.30;;;9.53;;
18265;SDS011;9259;48.194;16.322;2023-02-17T01:58:25;27.87;;;9.77;;
18265;SDS011;9259;48.194;16.322;2023-02-17T02:00:55;25.50;;;10.10;;
18265;SDS011;9259;48.194;16.322;2023-02-17T02:03:27;24.97;;;9.97;;
18265;SDS011;9259;48.194;16.322;2023-02-17T02:06:02;27.00;;;10.83;;
18265;SDS011;9259;48.194;16.322;2023-02-17T02:08:33;26.53;;;9.23;;
18265;SDS011;9259;48.194;16.322;2023-02-17T02:11:13;24.03;;;9.70;;
18265;SDS011;9259;48.194;16.322;2023-02-17T02:13:41;30.17;;;11.60;;
18265;SDS011;9259;48.194;16.322;2023-02-17T02:16:11;28.97;;;10.40;;
18265;SDS011;9259;48.194;16.322;2023-02-17T02:18:49;31.43;;;11.63;;
18265;SDS011;9259;48.194;16.322;2023-02-17T02:21:34;24.43;;;10.50;;
18265;SDS011;9259;48.194;16.322;2023-02-17T02:24:27;27.87;;;11.10;;
18265;SDS011;9259;48.194;16.322;2023-02-17T02:30:10;25.63;;;10.53;;
18265;SDS011;9259;48.194;16.322;2023-02-17T02:33:14;28.83;;;10.47;;
18265;SDS011;9259;48.194;16.322;2023-02-17T02:35:53;28.17;;;10.37;;
18265;SDS011;9259;48.194;16.322;2023-02-17T02:38:28;27.10;;;10.83;;
18265;SDS011;9259;48.194;16.322;2023-02-17T02:41:03;25.87;;;10.90;;
18265;SDS011;9259;48.194;16.322;2023-02-17T02:43:35;23.03;;;10.37;;
18265;SDS011;9259;48.194;16.322;2023-02-17T02:46:04;26.17;;;11.17;;
18265;SDS011;9259;48.194;16.322;2023-02-17T02:48:34;31.37;;;10.67;;
18265;SDS011;9259;48.194;16.322;2023-02-17T02:51:05;32.77;;;11.93;;
18265;SDS011;9259;48.194;16.322;2023-02-17T02:54:02;30.90;;;12.70;;
18265;SDS011;9259;48.194;16.322;2023-02-17T02:57:02;36.13;;;12.93;;
18265;SDS011;9259;48.194;16.322;2023-02-17T02:59:57;35.10;;;12.87;;
18265;SDS011;9259;48.194;16.322;2023-02-17T03:02:42;30.67;;;12.17;;
18265;SDS011;9259;48.194;16.322;2023-02-17T03:05:21;30.73;;;12.83;;
18265;SDS011;9259;48.194;16.322;2023-02-17T03:08:00;27.17;;;11.27;;
18265;SDS011;9259;48.194;16.322;2023-02-17T03:10:33;26.73;;;12.27;;
18265;SDS011;9259;48.194;16.322;2023-02-17T03:13:02;28.27;;;11.03;;
18265;SDS011;9259;48.194;16.322;2023-02-17T03:15:31;29.60;;;11.23;;
18265;SDS011;9259;48.194;16.322;2023-02-17T03:18:01;31.87;;;11.37;;
18265;SDS011;9259;48.194;16.322;2023-02-17T03:20:31;27.43;;;10.30;;
18265;SDS011;9259;48.194;16.322;2023-02-17T03:23:03;27.73;;;10.93;;
18265;SDS011;9259;48.194;16.322;2023-02-17T03:25:32;25.23;;;10.53;;
18265;SDS011;9259;48.194;16.322;2023-02-17T03:28:00;28.80;;;11.23;;
18265;SDS011;9259;48.194;16.322;2023-02-17T03:30:29;29.10;;;10.00;;
18265;SDS011;9259;48.194;16.322;2023-02-17T03:33:03;24.03;;;11.00;;
18265;SDS011;9259;48.194;16.322;2023-02-17T03:35:32;28.73;;;11.47;;
18265;SDS011;9259;48.194;16.322;2023-02-17T03:38:00;30.13;;;12.53;;
18265;SDS011;9259;48.194;16.322;2023-02-17T03:40:28;30.23;;;11.63;;
18265;SDS011;9259;48.194;16.322;2023-02-17T03:42:56;31.17;;;12.63;;
18265;SDS011;9259;48.194;16.322;2023-02-17T03:45:24;31.30;;;12.77;;
18265;SDS011;9259;48.194;16.322;2023-02-17T03:47:52;34.73;;;12.57;;
18265;SDS011;9259;48.194;16.322;2023-02-17T03:50:20;28.73;;;12.13;;
18265;SDS011;9259;48.194;16.322;2023-02-17T03:52:49;32.30;;;12.70;;
18265;SDS011;9259;48.194;16.322;2023-02-17T03:55:18;22.83;;;8.77;;
18265;SDS011;9259;48.194;16.322;2023-02-17T03:57:46;21.43;;;8.77;;
18265;SDS011;9259;48.194;16.322;2023-02-17T04:00:14;19.20;;;7.60;;
18265;SDS011;9259;48.194;16.322;2023-02-17T04:02:43;19.77;;;7.10;;
18265;SDS011;9259;48.194;16.322;2023-02-17T04:05:10;17.63;;;6.40;;
18265;SDS011;9259;48.194;16.322;2023-02-17T04:07:38;21.60;;;7.90;;
18265;SDS011;9259;48.194;16.322;2023-02-17T04:10:08;15.37;;;6.50;;
18265;SDS011;9259;48.194;16.322;2023-02-17T04:12:37;16.17;;;6.73;;
18265;SDS011;9259;48.194;16.322;2023-02-17T04:15:05;17.60;;;6.87;;
18265;SDS011;9259;48.194;16.322;2023-02-17T04:17:34;17.67;;;6.87;;
18265;SDS011;9259;48.194;16.322;2023-02-17T04:20:03;17.50;;;6.33;;
18265;SDS011;9259;48.194;16.322;2023-02-17T04:22:33;15.27;;;5.93;;
18265;SDS011;9259;48.194;16.322;2023-02-17T04:25:00;14.50;;;6.53;;
18265;SDS011;9259;48.194;16.322;2023-02-17T04:27:30;14.23;;;6.17;;
18265;SDS011;9259;48.194;16.322;2023-02-17T04:29:58;16.03;;;6.43;;
18265;SDS011;9259;48.194;16.322;2023-02-17T04:32:26;13.70;;;5.70;;
18265;SDS011;9259;48.194;16.322;2023-02-17T04:34:54;18.90;;;6.40;;
18265;SDS011;9259;48.194;16.322;2023-02-17T04:37:21;14.87;;;6.10;;
18265;SDS011;9259;48.194;16.322;2023-02-17T04:39:49;14.67;;;5.63;;
18265;SDS011;9259;48.194;16.322;2023-02-17T04:42:17;14.43;;;6.47;;
18265;SDS011;9259;48.194;16.322;2023-02-17T04:44:47;13.63;;;6.70;;
18265;SDS011;9259;48.194;16.322;2023-02-17T04:47:16;16.03;;;6.10;;
18265;SDS011;9259;48.194;16.322;2023-02-17T04:49:44;14.23;;;6.20;;
18265;SDS011;9259;48.194;16.322;2023-02-17T04:52:12;15.80;;;6.00;;
18265;SDS011;9259;48.194;16.322;2023-02-17T04:54:40;14.50;;;6.10;;
18265;SDS011;9259;48.194;16.322;2023-02-17T04:57:07;14.43;;;6.20;;
18265;SDS011;9259;48.194;16.322;2023-02-17T04:59:35;13.70;;;5.57;;
18265;SDS011;9259;48.194;16.322;2023-02-17T05:02:05;15.60;;;6.67;;
18265;SDS011;9259;48.194;16.322;2023-02-17T05:04:33;13.37;;;6.00;;
18265;SDS011;9259;48.194;16.322;2023-02-17T05:07:01;12.63;;;5.10;;
18265;SDS011;9259;48.194;16.322;2023-02-17T05:09:29;14.47;;;5.23;;
18265;SDS011;9259;48.194;16.322;2023-02-17T05:11:57;10.43;;;5.40;;
18265;SDS011;9259;48.194;16.322;2023-02-17T05:14:25;10.53;;;4.80;;
18265;SDS011;9259;48.194;16.322;2023-02-17T05:16:53;12.73;;;5.20;;
18265;SDS011;9259;48.194;16.322;2023-02-17T05:19:22;11.63;;;5.00;;
18265;SDS011;9259;48.194;16.322;2023-02-17T05:21:50;12.03;;;5.13;;
18265;SDS011;9259;48.194;16.322;2023-02-17T05:24:18;15.07;;;5.53;;
18265;SDS011;9259;48.194;16.322;2023-02-17T05:26:46;13.80;;;5.10;;
18265;SDS011;9259;48.194;16.322;2023-02-17T05:29:14;10.97;;;5.13;;
18265;SDS011;9259;48.194;16.322;2023-02-17T05:31:42;14.47;;;5.20;;
18265;SDS011;9259;48.194;16.322;2023-02-17T05:34:11;11.77;;;4.93;;
18265;SDS011;9259;48.194;16.322;2023-02-17T05:36:40;11.30;;;4.60;;
18265;SDS011;9259;48.194;16.322;2023-02-17T05:39:08;10.53;;;4.90;;
18265;SDS011;9259;48.194;16.322;2023-02-17T05:41:36;9.93;;;5.00;;
18265;SDS011;9259;48.194;16.322;2023-02-17T05:44:04;10.20;;;4.73;;
18265;SDS011;9259;48.194;16.322;2023-02-17T05:46:32;12.57;;;5.03;;
18265;SDS011;9259;48.194;16.322;2023-02-17T05:49:00;13.50;;;5.60;;
18265;SDS011;9259;48.194;16.322;2023-02-17T05:51:28;11.57;;;4.80;;
18265;SDS011;9259;48.194;16.322;2023-02-17T05:53:57;12.53;;;6.00;;
18265;SDS011;9259;48.194;16.322;2023-02-17T05:56:25;11.93;;;5.33;;
18265;SDS011;9259;48.194;16.322;2023-02-17T05:58:53;14.13;;;5.10;;
18265;SDS011;9259;48.194;16.322;2023-02-17T06:01:21;13.97;;;5.27;;
18265;SDS011;9259;48.194;16.322;2023-02-17T06:03:49;13.40;;;5.37;;
18265;SDS011;9259;48.194;16.322;2023-02-17T06:06:17;13.63;;;5.20;;
18265;SDS011;9259;48.194;16.322;2023-02-17T06:08:45;16.83;;;5.37;;
18265;SDS011;9259;48.194;16.322;2023-02-17T06:11:15;14.43;;;5.43;;
18265;SDS011;9259;48.194;16.322;2023-02-17T06:13:43;11.20;;;4.27;;
18265;SDS011;9259;48.194;16.322;2023-02-17T06:16:10;13.93;;;5.60;;
18265;SDS011;9259;48.194;16.322;2023-02-17T06:18:38;16.73;;;5.37;;
18265;SDS011;9259;48.194;16.322;2023-02-17T06:21:06;16.90;;;5.27;;
18265;SDS011;9259;48.194;16.322;2023-02-17T06:23:34;11.53;;;5.20;;
18265;SDS011;9259;48.194;16.322;2023-02-17T06:26:02;12.43;;;5.20;;
18265;SDS011;9259;48.194;16.322;2023-02-17T06:28:32;12.37;;;5.60;;
18265;SDS011;9259;48.194;16.322;2023-02-17T06:31:00;14.47;;;5.30;;
18265;SDS011;9259;48.194;16.322;2023-02-17T06:33:28;14.00;;;5.60;;
18265;SDS011;9259;48.194;16.322;2023-02-17T06:35:56;12.90;;;5.63;;
18265;SDS011;9259;48.194;16.322;2023-02-17T06:38:24;12.53;;;5.43;;
18265;SDS011;9259;48.194;16.322;2023-02-17T06:40:52;15.17;;;5.30;;
18265;SDS011;9259;48.194;16.322;2023-02-17T06:43:20;13.30;;;5.37;;
18265;SDS011;9259;48.194;16.322;2023-02-17T06:45:49;10.80;;;5.13;;
18265;SDS011;9259;48.194;16.322;2023-02-17T06:48:17;13.33;;;5.53;;
18265;SDS011;9259;48.194;16.322;2023-02-17T06:50:45;13.57;;;5.20;;
18265;SDS011;9259;48.194;16.322;2023-02-17T06:53:15;10.03;;;5.43;;
18265;SDS011;9259;48.194;16.322;2023-02-17T06:55:43;12.87;;;5.20;;
18265;SDS011;9259;48.194;16.322;2023-02-17T06:58:11;10.70;;;5.10;;
18265;SDS011;9259;48.194;16.322;2023-02-17T07:00:39;15.37;;;5.83;;
18265;SDS011;9259;48.194;16.322;2023-02-17T07:03:08;11.77;;;5.37;;
18265;SDS011;9259;48.194;16.322;2023-02-17T07:05:36;15.83;;;6.00;;
18265;SDS011;9259;48.194;16.322;2023-02-17T07:08:05;23.17;;;6.47;;
18265;SDS011;9259;48.194;16.322;2023-02-17T07:10:33;15.90;;;6.23;;
18265;SDS011;9259;48.194;16.322;2023-02-17T07:13:03;10.67;;;5.20;;
18265;SDS011;9259;48.194;16.322;2023-02-17T07:15:31;14.03;;;6.20;;
18265;SDS011;9259;48.194;16.322;2023-02-17T07:17:59;15.53;;;6.73;;
18265;SDS011;9259;48.194;16.322;2023-02-17T07:20:29;15.50;;;6.07;;
18265;SDS011;9259;48.194;16.322;2023-02-17T07:22:58;15.47;;;6.00;;
18265;SDS011;9259;48.194;16.322;2023-02-17T07:25:26;17.43;;;6.90;;
18265;SDS011;9259;48.194;16.322;2023-02-17T07:27:54;22.83;;;6.67;;
18265;SDS011;9259;48.194;16.322;2023-02-17T07:30:22;23.60;;;6.73;;
18265;SDS011;9259;48.194;16.322;2023-02-17T07:32:50;18.33;;;6.73;;
18265;SDS011;9259;48.194;16.322;2023-02-17T07:35:18;17.30;;;6.90;;
18265;SDS011;9259;48.194;16.322;2023-02-17T07:37:47;24.10;;;7.00;;
18265;SDS011;9259;48.194;16.322;2023-02-17T07:40:16;19.13;;;6.93;;
18265;SDS011;9259;48.194;16.322;2023-02-17T07:42:44;19.23;;;7.10;;
18265;SDS011;9259;48.194;16.322;2023-02-17T07:45:12;14.23;;;6.80;;
18265;SDS011;9259;48.194;16.322;2023-02-17T07:47:40;20.10;;;7.37;;
18265;SDS011;9259;48.194;16.322;2023-02-17T07:50:08;19.50;;;7.50;;
18265;SDS011;9259;48.194;16.322;2023-02-17T07:52:37;19.53;;;9.47;;
18265;SDS011;9259;48.194;16.322;2023-02-17T07:55:06;22.23;;;8.90;;
18265;SDS011;9259;48.194;16.322;2023-02-17T07:57:34;21.80;;;8.93;;
18265;SDS011;9259;48.194;16.322;2023-02-17T08:00:03;24.70;;;8.93;;
18265;SDS011;9259;48.194;16.322;2023-02-17T08:02:32;22.03;;;7.43;;
18265;SDS011;9259;48.194;16.322;2023-02-17T08:05:00;21.27;;;7.73;;
18265;SDS011;9259;48.194;16.322;2023-02-17T08:07:28;21.97;;;8.43;;
18265;SDS011;9259;48.194;16.322;2023-02-17T08:09:57;22.80;;;7.93;;
18265;SDS011;9259;48.194;16.322;2023-02-17T08:12:44;17.73;;;7.83;;
18265;SDS011;9259;48.194;16.322;2023-02-17T08:15:31;20.47;;;7.80;;
18265;SDS011;9259;48.194;16.322;2023-02-17T08:18:00;20.70;;;7.13;;
18265;SDS011;9259;48.194;16.322;2023-02-17T08:20:29;22.60;;;7.77;;
18265;SDS011;9259;48.194;16.322;2023-02-17T08:22:57;15.90;;;5.50;;
18265;SDS011;9259;48.194;16.322;2023-02-17T08:25:29;12.90;;;4.40;;
18265;SDS011;9259;48.194;16.322;2023-02-17T08:27:59;8.77;;;4.07;;
18265;SDS011;9259;48.194;16.322;2023-02-17T08:30:28;11.53;;;3.27;;
18265;SDS011;9259;48.194;16.322;2023-02-17T08:32:56;10.30;;;3.13;;
18265;SDS011;9259;48.194;16.322;2023-02-17T08:35:24;15.03;;;3.50;;
18265;SDS011;9259;48.194;16.322;2023-02-17T08:37:53;10.43;;;3.83;;
18265;SDS011;9259;48.194;16.322;2023-02-17T08:40:21;8.90;;;3.30;;
18265;SDS011;9259;48.194;16.322;2023-02-17T08:42:50;8.67;;;3.23;;
18265;SDS011;9259;48.194;16.322;2023-02-17T08:45:19;8.33;;;3.70;;
18265;SDS011;9259;48.194;16.322;2023-02-17T08:47:48;9.83;;;3.33;;
18265;SDS011;9259;48.194;16.322;2023-02-17T08:50:16;13.83;;;3.80;;
18265;SDS011;9259;48.194;16.322;2023-02-17T08:52:45;8.40;;;3.33;;
18265;SDS011;9259;48.194;16.322;2023-02-17T08:55:13;9.87;;;3.70;;
18265;SDS011;9259;48.194;16.322;2023-02-17T08:57:43;7.90;;;3.43;;
18265;SDS011;9259;48.194;16.322;2023-02-17T09:00:11;10.27;;;3.80;;
18265;SDS011;9259;48.194;16.322;2023-02-17T09:02:42;10.10;;;3.60;;
18265;SDS011;9259;48.194;16.322;2023-02-17T09:05:10;13.00;;;3.90;;
18265;SDS011;9259;48.194;16.322;2023-02-17T09:07:39;9.83;;;3.47;;
18265;SDS011;9259;48.194;16.322;2023-02-17T09:10:11;10.17;;;3.80;;
18265;SDS011;9259;48.194;16.322;2023-02-17T09:12:39;13.20;;;3.67;;
18265;SDS011;9259;48.194;16.322;2023-02-17T09:15:08;12.63;;;3.57;;
18265;SDS011;9259;48.194;16.322;2023-02-17T09:17:37;14.27;;;3.70;;
18265;SDS011;9259;48.194;16.322;2023-02-17T09:20:08;10.63;;;3.53;;
18265;SDS011;9259;48.194;16.322;2023-02-17T09:22:37;17.53;;;3.90;;
18265;SDS011;9259;48.194;16.322;2023-02-17T09:25:05;9.77;;;3.77;;
18265;SDS011;9259;48.194;16.322;2023-02-17T09:27:34;10.30;;;3.37;;
18265;SDS011;9259;48.194;16.322;2023-02-17T09:30:02;11.33;;;3.40;;
18265;SDS011;9259;48.194;16.322;2023-02-17T09:32:31;13.80;;;3.77;;
18265;SDS011;9259;48.194;16.322;2023-02-17T09:34:59;10.27;;;2.93;;
18265;SDS011;9259;48.194;16.322;2023-02-17T09:37:32;13.67;;;3.30;;
18265;SDS011;9259;48.194;16.322;2023-02-17T09:40:00;17.30;;;3.60;;
18265;SDS011;9259;48.194;16.322;2023-02-17T09:42:28;13.43;;;3.97;;
18265;SDS011;9259;48.194;16.322;2023-02-17T09:44:56;10.50;;;3.60;;
18265;SDS011;9259;48.194;16.322;2023-02-17T09:47:30;12.00;;;3.87;;
18265;SDS011;9259;48.194;16.322;2023-02-17T09:50:05;11.07;;;3.30;;
18265;SDS011;9259;48.194;16.322;2023-02-17T09:52:38;10.33;;;3.60;;
18265;SDS011;9259;48.194;16.322;2023-02-17T09:55:14;12.90;;;3.60;;
18265;SDS011;9259;48.194;16.322;2023-02-17T09:57:48;11.03;;;3.40;;
18265;SDS011;9259;48.194;16.322;2023-02-17T10:00:24;11.93;;;3.93;;
18265;SDS011;9259;48.194;16.322;2023-02-17T10:02:56;10.67;;;3.43;;
18265;SDS011;9259;48.194;16.322;2023-02-17T10:05:31;12.07;;;3.27;;
18265;SDS011;9259;48.194;16.322;2023-02-17T10:08:06;9.93;;;3.60;;
18265;SDS011;9259;48.194;16.322;2023-02-17T10:10:40;15.13;;;3.30;;
18265;SDS011;9259;48.194;16.322;2023-02-17T10:13:14;15.00;;;3.67;;
18265;SDS011;9259;48.194;16.322;2023-02-17T10:15:46;15.27;;;3.57;;
18265;SDS011;9259;48.194;16.322;2023-02-17T10:18:18;7.43;;;3.10;;
18265;SDS011;9259;48.194;16.322;2023-02-17T10:20:54;13.03;;;3.40;;
18265;SDS011;9259;48.194;16.322;2023-02-17T10:23:31;13.47;;;3.70;;
18265;SDS011;9259;48.194;16.322;2023-02-17T10:26:05;7.30;;;3.53;;
18265;SDS011;9259;48.194;16.322;2023-02-17T10:28:49;10.83;;;4.30;;
18265;SDS011;9259;48.194;16.322;2023-02-17T10:31:22;12.27;;;3.23;;
18265;SDS011;9259;48.194;16.322;2023-02-17T10:34:10;10.13;;;3.67;;
18265;SDS011;9259;48.194;16.322;2023-02-17T10:36:47;14.87;;;3.60;;
18265;SDS011;9259;48.194;16.322;2023-02-17T10:39:28;9.97;;;4.03;;
18265;SDS011;9259;48.194;16.322;2023-02-17T10:42:10;20.70;;;5.47;;
18265;SDS011;9259;48.194;16.322;2023-02-17T10:44:47;7.63;;;3.13;;
18265;SDS011;9259;48.194;16.322;2023-02-17T10:47:17;12.13;;;3.50;;
18265;SDS011;9259;48.194;16.322;2023-02-17T10:49:48;8.17;;;3.50;;
18265;SDS011;9259;48.194;16.322;2023-02-17T10:52:18;9.57;;;3.43;;
18265;SDS011;9259;48.194;16.322;2023-02-17T10:54:51;10.90;;;3.83;;
18265;SDS011;9259;48.194;16.322;2023-02-17T10:57:25;8.83;;;3.27;;
18265;SDS011;9259;48.194;16.322;2023-02-17T11:00:01;7.20;;;3.33;;
18265;SDS011;9259;48.194;16.322;2023-02-17T11:02:32;7.70;;;3.03;;
18265;SDS011;9259;48.194;16.322;2023-02-17T11:05:03;9.13;;;3.23;;
18265;SDS011;9259;48.194;16.322;2023-02-17T11:07:32;9.20;;;2.50;;
18265;SDS011;9259;48.194;16.322;2023-02-17T11:10:18;13.30;;;3.27;;
18265;SDS011;9259;48.194;16.322;2023-02-17T11:12:48;9.97;;;3.03;;
18265;SDS011;9259;48.194;16.322;2023-02-17T11:15:17;9.70;;;2.83;;
18265;SDS011;9259;48.194;16.322;2023-02-17T11:17:48;6.13;;;2.70;;
18265;SDS011;9259;48.194;16.322;2023-02-17T11:20:27;4.60;;;2.10;;
18265;SDS011;9259;48.194;16.322;2023-02-17T11:23:05;6.70;;;2.60;;
18265;SDS011;9259;48.194;16.322;2023-02-17T11:26:00;6.67;;;2.37;;
18265;SDS011;9259;48.194;16.322;2023-02-17T11:28:35;7.53;;;2.50;;
18265;SDS011;9259;48.194;16.322;2023-02-17T11:31:03;11.63;;;2.70;;
18265;SDS011;9259;48.194;16.322;2023-02-17T11:33:33;9.97;;;2.70;;
18265;SDS011;9259;48.194;16.322;2023-02-17T11:36:04;11.40;;;3.03;;
18265;SDS011;9259;48.194;16.322;2023-02-17T11:38:41;10.00;;;2.57;;
18265;SDS011;9259;48.194;16.322;2023-02-17T11:41:12;8.23;;;2.60;;
18265;SDS011;9259;48.194;16.322;2023-02-17T11:43:49;8.53;;;2.60;;
18265;SDS011;9259;48.194;16.322;2023-02-17T11:46:20;9.27;;;2.80;;
18265;SDS011;9259;48.194;16.322;2023-02-17T11:49:01;7.40;;;2.63;;
18265;SDS011;9259;48.194;16.322;2023-02-17T11:51:54;12.60;;;2.77;;
18265;SDS011;9259;48.194;16.322;2023-02-17T11:54:35;6.83;;;2.60;;
18265;SDS011;9259;48.194;16.322;2023-02-17T11:57:23;12.37;;;2.83;;
18265;SDS011;9259;48.194;16.322;2023-02-17T12:00:12;7.93;;;2.67;;
18265;SDS011;9259;48.194;16.322;2023-02-17T12:02:50;8.20;;;3.10;;
18265;SDS011;9259;48.194;16.322;2023-02-17T12:05:38;8.13;;;2.20;;
18265;SDS011;9259;48.194;16.322;2023-02-17T12:08:27;8.70;;;2.80;;
18265;SDS011;9259;48.194;16.322;2023-02-17T12:11:08;9.33;;;2.63;;
18265;SDS011;9259;48.194;16.322;2023-02-17T12:13:51;8.10;;;2.83;;
18265;SDS011;9259;48.194;16.322;2023-02-17T12:16:41;11.27;;;2.97;;
18265;SDS011;9259;48.194;16.322;2023-02-17T12:19:22;10.43;;;2.73;;
18265;SDS011;9259;48.194;16.322;2023-02-17T12:22:12;7.67;;;2.60;;
18265;SDS011;9259;48.194;16.322;2023-02-17T12:24:52;9.00;;;2.47;;
18265;SDS011;9259;48.194;16.322;2023-02-17T12:27:37;5.97;;;2.77;;
18265;SDS011;9259;48.194;16.322;2023-02-17T12:33:17;8.17;;;2.57;;
18265;SDS011;9259;48.194;16.322;2023-02-17T12:35:59;11.43;;;3.00;;
18265;SDS011;9259;48.194;16.322;2023-02-17T12:38:30;8.73;;;3.03;;
18265;SDS011;9259;48.194;16.322;2023-02-17T12:41:01;10.50;;;2.63;;
18265;SDS011;9259;48.194;16.322;2023-02-17T12:43:34;7.93;;;2.87;;
18265;SDS011;9259;48.194;16.322;2023-02-17T12:46:10;8.73;;;2.70;;
18265;SDS011;9259;48.194;16.322;2023-02-17T12:48:43;7.13;;;2.50;;
18265;SDS011;9259;48.194;16.322;2023-02-17T12:51:20;5.30;;;2.43;;
18265;SDS011;9259;48.194;16.322;2023-02-17T12:53:52;7.27;;;2.87;;
18265;SDS011;9259;48.194;16.322;2023-02-17T12:59:40;7.80;;;2.30;;
18265;SDS011;9259;48.194;16.322;2023-02-17T13:02:12;11.33;;;2.37;;
18265;SDS011;9259;48.194;16.322;2023-02-17T13:04:43;6.83;;;2.60;;
18265;SDS011;9259;48.194;16.322;2023-02-17T13:07:28;13.70;;;2.47;;
18265;SDS011;9259;48.194;16.322;2023-02-17T13:10:17;11.07;;;2.53;;
18265;SDS011;9259;48.194;16.322;2023-02-17T13:12:56;9.23;;;2.87;;
18265;SDS011;9259;48.194;16.322;2023-02-17T13:15:30;9.60;;;2.07;;
18265;SDS011;9259;48.194;16.322;2023-02-17T13:18:04;6.50;;;2.20;;
18265;SDS011;9259;48.194;16.322;2023-02-17T13:20:39;7.67;;;2.53;;
18265;SDS011;9259;48.194;16.322;2023-02-17T13:23:27;8.33;;;2.20;;
18265;SDS011;9259;48.194;16.322;2023-02-17T13:29:17;5.60;;;2.07;;
18265;SDS011;9259;48.194;16.322;2023-02-17T13:31:57;7.70;;;2.17;;
18265;SDS011;9259;48.194;16.322;2023-02-17T13:34:31;12.93;;;1.90;;
18265;SDS011;9259;48.194;16.322;2023-02-17T13:37:13;7.87;;;1.40;;
18265;SDS011;9259;48.194;16.322;2023-02-17T13:39:45;9.93;;;2.33;;
18265;SDS011;9259;48.194;16.322;2023-02-17T13:42:27;7.93;;;2.10;;
18265;SDS011;9259;48.194;16.322;2023-02-17T13:45:10;10.20;;;2.00;;
18265;SDS011;9259;48.194;16.322;2023-02-17T13:47:44;6.13;;;1.93;;
18265;SDS011;9259;48.194;16.322;2023-02-17T13:50:31;6.37;;;1.70;;
18265;SDS011;9259;48.194;16.322;2023-02-17T13:53:02;8.97;;;1.60;;
18265;SDS011;9259;48.194;16.322;2023-02-17T13:55:48;5.50;;;1.90;;
18265;SDS011;9259;48.194;16.322;2023-02-17T13:58:20;8.87;;;2.17;;
18265;SDS011;9259;48.194;16.322;2023-02-17T14:00:50;5.97;;;2.07;;
18265;SDS011;9259;48.194;16.322;2023-02-17T14:03:21;5.20;;;1.60;;
18265;SDS011;9259;48.194;16.322;2023-02-17T14:05:53;4.70;;;1.67;;
18265;SDS011;9259;48.194;16.322;2023-02-17T14:08:26;5.50;;;1.80;;
18265;SDS011;9259;48.194;16.322;2023-02-17T14:11:02;6.27;;;1.50;;
18265;SDS011;9259;48.194;16.322;2023-02-17T14:13:34;5.20;;;1.97;;
18265;SDS011;9259;48.194;16.322;2023-02-17T14:16:05;8.00;;;1.53;;
18265;SDS011;9259;48.194;16.322;2023-02-17T14:18:34;10.33;;;1.20;;
18265;SDS011;9259;48.194;16.322;2023-02-17T14:21:08;5.20;;;1.30;;
18265;SDS011;9259;48.194;16.322;2023-02-17T14:23:42;6.97;;;1.60;;
18265;SDS011;9259;48.194;16.322;2023-02-17T14:26:14;10.13;;;1.37;;
18265;SDS011;9259;48.194;16.322;2023-02-17T14:28:53;4.10;;;1.10;;
18265;SDS011;9259;48.194;16.322;2023-02-17T14:31:23;3.33;;;1.17;;
18265;SDS011;9259;48.194;16.322;2023-02-17T14:33:53;3.87;;;1.50;;
18265;SDS011;9259;48.194;16.322;2023-02-17T14:36:26;4.40;;;1.10;;
18265;SDS011;9259;48.194;16.322;2023-02-17T14:38:58;2.53;;;1.00;;
18265;SDS011;9259;48.194;16.322;2023-02-17T14:41:28;6.50;;;1.13;;
18265;SDS011;9259;48.194;16.322;2023-02-17T14:43:56;4.03;;;1.20;;
18265;SDS011;9259;48.194;16.322;2023-02-17T14:46:25;6.93;;;1.97;;
18265;SDS011;9259;48.194;16.322;2023-02-17T14:48:54;3.50;;;1.23;;
18265;SDS011;9259;48.194;16.322;2023-02-17T14:51:22;5.07;;;1.50;;
18265;SDS011;9259;48.194;16.322;2023-02-17T14:53:59;7.73;;;1.53;;
18265;SDS011;9259;48.194;16.322;2023-02-17T14:56:29;5.27;;;2.03;;
18265;SDS011;9259;48.194;16.322;2023-02-17T14:58:59;7.90;;;1.50;;
18265;SDS011;9259;48.194;16.322;2023-02-17T15:01:28;3.13;;;1.53;;
18265;SDS011;9259;48.194;16.322;2023-02-17T15:03:56;8.67;;;2.13;;
18265;SDS011;9259;48.194;16.322;2023-02-17T15:06:25;6.47;;;1.40;;
18265;SDS011;9259;48.194;16.322;2023-02-17T15:08:56;6.27;;;1.20;;
18265;SDS011;9259;48.194;16.322;2023-02-17T15:11:26;4.80;;;1.40;;
18265;SDS011;9259;48.194;16.322;2023-02-17T15:13:58;7.57;;;1.47;;
18265;SDS011;9259;48.194;16.322;2023-02-17T15:16:27;4.83;;;1.57;;